Aviation Digital Data Service (ADDS)

Output produced by TAFs form (1920 UTC 21 April 2018)
found at http://aviationweather.gov/adds/tafs/
 
Forecast for: RJCM (MEMAMBETSU AIRPO, JP)
Text: TAF RJCM 211714Z 2118/2300 01011KT 9999 FEW008 BKN015
Forecast period: 1800 UTC 21 April 2018 to 0900 UTC 22 April 2018
Forecast type: FROM: standard forecast or significant change
Winds: from the N (10 degrees) at 13 MPH (11 knots; 5.7 m/s)
Visibility: 6 or more miles (10+ km)
Ceiling: 1500 feet AGL
Clouds: few clouds at 800 feet AGL
broken clouds at 1500 feet AGL
Weather: no significant weather forecast for this period
Forecast for: RJCM (MEMAMBETSU AIRPO, JP)
Text: TAF RJCM 211714Z 2118/2300 01011KT 9999 FEW008 BKN015
Forecast period: 1800 UTC 21 April 2018 to 0900 UTC 22 April 2018
Forecast type: FROM: standard forecast or significant change
Winds: from the N (10 degrees) at 13 MPH (11 knots; 5.7 m/s)
Visibility: 6 or more miles (10+ km)
Ceiling: 1500 feet AGL
Clouds: few clouds at 800 feet AGL
broken clouds at 1500 feet AGL
Weather: no significant weather forecast for this period
Forecast for: RJCM (MEMAMBETSU AIRPO, JP)
Text: TAF RJCM 211714Z 2118/2300 01011KT 9999 FEW008 BKN015
Forecast period: 1800 UTC 21 April 2018 to 0200 UTC 22 April 2018
Forecast type: TEMPORARY: The following changes expected for less than half the time period
Ceiling: 800 feet AGL
Clouds: few clouds at 500 feet AGL
broken clouds at 800 feet AGL
Weather: no significant weather forecast for this period
Forecast for: RJCM (MEMAMBETSU AIRPO, JP)
Text: TAF RJCM 211714Z 2118/2300 01011KT 9999 FEW008 BKN015
Forecast period: 1800 UTC 21 April 2018 to 0200 UTC 22 April 2018
Forecast type: TEMPORARY: The following changes expected for less than half the time period
Ceiling: 800 feet AGL
Clouds: few clouds at 500 feet AGL
broken clouds at 800 feet AGL
Weather: no significant weather forecast for this period
Forecast for: RJCM (MEMAMBETSU AIRPO, JP)
Text: TAF RJCM 211714Z 2118/2300 01011KT 9999 FEW008 BKN015
Forecast period: 0900 UTC 22 April 2018 to 0000 UTC 23 April 2018
Forecast type: BECOMING: Conditions expected to become as follows by 1200 UTC 22 April 2018
Winds: from the S (170 degrees) at 6 MPH (5 knots; 2.6 m/s)
Visibility: 6 or more miles (10+ km)
Ceiling: 1500 feet AGL
Clouds: few clouds at 800 feet AGL
broken clouds at 1500 feet AGL
Weather: no significant weather forecast for this period
Forecast for: RJCM (MEMAMBETSU AIRPO, JP)
Text: TAF RJCM 211714Z 2118/2300 01011KT 9999 FEW008 BKN015
Forecast period: 0900 UTC 22 April 2018 to 0000 UTC 23 April 2018
Forecast type: BECOMING: Conditions expected to become as follows by 1200 UTC 22 April 2018
Winds: from the S (170 degrees) at 6 MPH (5 knots; 2.6 m/s)
Visibility: 6 or more miles (10+ km)
Ceiling: 1500 feet AGL
Clouds: few clouds at 800 feet AGL
broken clouds at 1500 feet AGL
Weather: no significant weather forecast for this period